Terminal Aerodrome Forecast
Issued by NWS

Home | Current Version | Previous Version | Text Only | Print | Product List | Glossary On
Versions: 1 2 3 4 5 6 7 8 9 10 11 12
000
FTUS43 KILX 312300
TAFBMI
TAF
KBMI 312323Z 0100/0124 VRB04KT P6SM SCT070
     FM010800 VRB03KT 6SM BR SCT040
     FM011400 21004KT P6SM BKN040
     FM011800 22004KT P6SM VCTS BKN050CB=

USA.gov is the U.S. government's official web portal to all federal, state and local government web resources and services.